Time;durP1;ratioP1;P1;durP2;ratioP2;P2;SDS_P1;SDS_P2;PMS_P1;PMS_P2;Temp;Humidity;BMP_temperature;BMP_pressure;BME280_temperature;BME280_humidity;BME280_pressure;Samples;Min_cycle;Max_cycle;Signal;HPM_P1;HPM_P2
2023/05/19 00:00:05;;;;;;;;;;;10.60;99.90;;;;;;5092858;28;19924;-76
2023/05/19 00:02:32;;;;;;;;;;;10.60;99.90;;;;;;5075182;28;19924;-76
2023/05/19 00:04:59;;;;;;;;;;;10.50;99.90;;;;;;5073578;28;19999;-76
2023/05/19 00:07:27;;;;;;;;;;;10.50;99.90;;;;;;5091231;28;19968;-76
2023/05/19 00:09:53;;;;;;;;;;;10.50;99.90;;;;;;5092486;28;19925;-76
2023/05/19 00:12:19;;;;;;;;;;;10.50;99.90;;;;;;5090816;28;19957;-76
2023/05/19 00:14:44;;;;;;;;;;;10.50;99.90;;;;;;5090101;28;19985;-76
2023/05/19 00:17:10;;;;;;;;;;;10.50;99.90;;;;;;5092022;28;19924;-76
2023/05/19 00:19:36;;;;;;;;;;;10.50;99.90;;;;;;5078398;28;19939;-76
2023/05/19 00:22:02;;;;;;;;;;;10.50;99.90;;;;;;5090688;28;19931;-75
2023/05/19 00:24:28;;;;;;;;;;;10.50;99.90;;;;;;5089963;28;19924;-76
2023/05/19 00:26:53;;;;;;;;;;;10.50;99.90;;;;;;5091679;28;19928;-76
2023/05/19 00:29:19;;;;;;;;;;;10.40;99.90;;;;;;5078955;28;19947;-76
2023/05/19 00:31:45;;;;;;;;;;;10.40;99.90;;;;;;5073877;28;19939;-76
2023/05/19 00:34:10;;;;;;;;;;;10.40;99.90;;;;;;5091190;28;19931;-76
2023/05/19 00:36:36;;;;;;;;;;;10.40;99.90;;;;;;5092280;28;19924;-76
2023/05/19 00:39:01;;;;;;;;;;;10.40;99.90;;;;;;5090731;28;20134;-76
2023/05/19 00:41:27;;;;;;;;;;;10.40;99.90;;;;;;5091187;28;19924;-76
2023/05/19 00:43:52;;;;;;;;;;;10.40;99.90;;;;;;5091117;28;19959;-76
2023/05/19 00:46:18;;;;;;;;;;;10.40;99.90;;;;;;5091932;28;20295;-76
2023/05/19 00:48:44;;;;;;;;;;;10.30;99.90;;;;;;5085531;28;19929;-76
2023/05/19 00:51:13;;;;;;;;;;;10.40;99.90;;;;;;5083991;28;19929;-76
2023/05/19 00:53:39;;;;;;;;;;;10.30;99.90;;;;;;5088428;28;19986;-76
2023/05/19 00:56:04;;;;;;;;;;;10.40;99.90;;;;;;5090290;28;19924;-76
2023/05/19 00:58:31;;;;;;;;;;;10.40;99.90;;;;;;5090382;28;19924;-76
2023/05/19 01:01:02;;;;;;;;;;;10.30;99.90;;;;;;5090368;28;19982;-76
2023/05/19 01:03:31;;;;;;;;;;;10.40;99.90;;;;;;5079407;28;20451;-76
2023/05/19 01:06:00;;;;;;;;;;;10.30;99.90;;;;;;5091944;28;19928;-76
2023/05/19 01:08:26;;;;;;;;;;;10.30;99.90;;;;;;5091580;28;19930;-76
2023/05/19 01:10:52;;;;;;;;;;;10.40;99.90;;;;;;5090464;28;19946;-76
2023/05/19 01:13:18;;;;;;;;;;;10.30;99.90;;;;;;5082987;28;19932;-76
2023/05/19 01:15:57;;;;;;;;;;;10.30;99.90;;;;;;5089978;28;19935;-76
2023/05/19 01:18:44;;;;;;;;;;;10.30;99.90;;;;;;5091274;28;19945;-76
2023/05/19 01:21:30;;;;;;;;;;;10.40;99.90;;;;;;5089798;28;20424;-76
2023/05/19 01:24:07;;;;;;;;;;;10.30;99.90;;;;;;5091098;28;20006;-76
2023/05/19 01:26:42;;;;;;;;;;;10.30;99.90;;;;;;5090186;28;19924;-76
2023/05/19 01:29:14;;;;;;;;;;;10.30;99.90;;;;;;5089913;28;19978;-76
2023/05/19 01:31:40;;;;;;;;;;;10.30;99.90;;;;;;5091424;28;20014;-76
2023/05/19 01:34:07;;;;;;;;;;;10.30;99.90;;;;;;5089610;28;19944;-76
2023/05/19 01:36:34;;;;;;;;;;;10.30;99.90;;;;;;5089956;28;19924;-75
2023/05/19 01:39:00;;;;;;;;;;;10.30;99.90;;;;;;5089473;28;19974;-76
2023/05/19 01:41:27;;;;;;;;;;;10.30;99.90;;;;;;5089515;28;20015;-76
2023/05/19 01:43:53;;;;;;;;;;;10.30;99.90;;;;;;5089990;28;20394;-76
2023/05/19 01:46:19;;;;;;;;;;;10.30;99.90;;;;;;5090223;28;19928;-76
2023/05/19 01:48:46;;;;;;;;;;;10.20;99.90;;;;;;5089553;28;19924;-76
2023/05/19 01:51:11;;;;;;;;;;;10.20;99.90;;;;;;5089490;28;19930;-76
2023/05/19 01:53:37;;;;;;;;;;;10.30;99.90;;;;;;5089761;28;19928;-75
2023/05/19 01:56:02;;;;;;;;;;;10.20;99.90;;;;;;5089191;28;19924;-76
2023/05/19 01:58:42;;;;;;;;;;;10.20;99.90;;;;;;5090747;28;21193;-76
2023/05/19 02:01:27;;;;;;;;;;;10.20;99.90;;;;;;5089530;28;19924;-76
2023/05/19 02:03:52;;;;;;;;;;;10.20;99.90;;;;;;5088599;28;19970;-76
2023/05/19 02:06:24;;;;;;;;;;;10.20;99.90;;;;;;5089336;28;20370;-76
2023/05/19 02:08:55;;;;;;;;;;;10.10;99.90;;;;;;5090797;28;19924;-76
2023/05/19 02:11:30;;;;;;;;;;;10.10;99.90;;;;;;5089227;28;20394;-76
2023/05/19 02:13:58;;;;;;;;;;;10.10;99.90;;;;;;5088673;28;19960;-76
2023/05/19 02:16:27;;;;;;;;;;;10.10;99.90;;;;;;5089339;28;19932;-76
2023/05/19 02:18:53;;;;;;;;;;;10.10;99.90;;;;;;5078314;28;19932;-76
2023/05/19 02:21:19;;;;;;;;;;;10.10;99.90;;;;;;5089141;28;19928;-76
2023/05/19 02:23:44;;;;;;;;;;;10.10;99.90;;;;;;5090063;28;20011;-76
2023/05/19 02:26:10;;;;;;;;;;;10.10;99.90;;;;;;5090055;28;19924;-76
2023/05/19 02:28:35;;;;;;;;;;;10.10;99.90;;;;;;5087643;28;19931;-75
2023/05/19 02:31:01;;;;;;;;;;;10.10;99.90;;;;;;5071134;28;19928;-76
2023/05/19 02:33:29;;;;;;;;;;;10.00;99.90;;;;;;5089003;28;20329;-76
2023/05/19 02:35:55;;;;;;;;;;;10.00;99.90;;;;;;5088758;28;20363;-76
2023/05/19 02:38:21;;;;;;;;;;;10.00;99.90;;;;;;5089944;28;19932;-76
2023/05/19 02:40:46;;;;;;;;;;;10.00;99.90;;;;;;5088854;28;19928;-76
2023/05/19 02:43:12;;;;;;;;;;;10.00;99.90;;;;;;5088486;28;19924;-76
2023/05/19 02:45:37;;;;;;;;;;;10.00;99.90;;;;;;5089443;28;20022;-76
2023/05/19 02:48:03;;;;;;;;;;;10.00;99.90;;;;;;5071234;28;21068;-76
2023/05/19 02:50:28;;;;;;;;;;;10.00;99.90;;;;;;5088634;28;19924;-76
2023/05/19 02:52:54;;;;;;;;;;;9.90;99.90;;;;;;5088440;28;19931;-76
2023/05/19 02:55:19;;;;;;;;;;;9.90;99.90;;;;;;5089799;28;19924;-76
2023/05/19 02:57:45;;;;;;;;;;;9.90;99.90;;;;;;5088370;28;19931;-76
2023/05/19 03:00:11;;;;;;;;;;;9.90;99.90;;;;;;5088408;28;19969;-76
2023/05/19 03:02:36;;;;;;;;;;;9.90;99.90;;;;;;5088649;28;20330;-76
2023/05/19 03:05:02;;;;;;;;;;;9.90;99.90;;;;;;5087899;28;19924;-76
2023/05/19 03:07:28;;;;;;;;;;;9.90;99.90;;;;;;5086183;28;19931;-76
2023/05/19 03:09:53;;;;;;;;;;;9.90;99.90;;;;;;5078742;28;19932;-76
2023/05/19 03:12:19;;;;;;;;;;;9.90;99.90;;;;;;5086720;28;19931;-76
2023/05/19 03:14:45;;;;;;;;;;;9.90;99.90;;;;;;5087613;28;19970;-76
2023/05/19 03:17:11;;;;;;;;;;;9.80;99.90;;;;;;5087324;28;20437;-76
2023/05/19 03:19:36;;;;;;;;;;;9.80;99.90;;;;;;5087643;28;19924;-76
2023/05/19 03:22:02;;;;;;;;;;;9.80;99.90;;;;;;5087593;28;19928;-76
2023/05/19 03:24:28;;;;;;;;;;;9.80;99.90;;;;;;5089649;28;19930;-76
2023/05/19 03:26:53;;;;;;;;;;;9.80;99.90;;;;;;5092489;28;20033;-75
2023/05/19 03:29:19;;;;;;;;;;;9.80;99.90;;;;;;5092512;28;19931;-75
2023/05/19 03:31:44;;;;;;;;;;;9.80;99.90;;;;;;5093695;28;20003;-76
2023/05/19 03:34:10;;;;;;;;;;;9.80;99.90;;;;;;5093612;28;19928;-76
2023/05/19 03:36:38;;;;;;;;;;;9.70;99.90;;;;;;5092968;28;19925;-76
2023/05/19 03:39:05;;;;;;;;;;;9.70;99.90;;;;;;5093527;28;20007;-76
2023/05/19 03:41:30;;;;;;;;;;;9.70;99.90;;;;;;5093180;28;19924;-76
2023/05/19 03:43:56;;;;;;;;;;;9.70;99.90;;;;;;5093287;28;19978;-76
2023/05/19 03:46:21;;;;;;;;;;;9.70;99.90;;;;;;5093323;28;19939;-76
2023/05/19 03:48:47;;;;;;;;;;;9.70;99.90;;;;;;5093015;28;20390;-76
2023/05/19 03:51:12;;;;;;;;;;;9.70;99.90;;;;;;5091713;28;19931;-76
2023/05/19 03:53:38;;;;;;;;;;;9.60;99.90;;;;;;5093485;28;19924;-76
2023/05/19 03:56:04;;;;;;;;;;;9.60;99.90;;;;;;5093112;28;20366;-76
2023/05/19 03:58:30;;;;;;;;;;;9.60;99.90;;;;;;5093161;28;19924;-76
2023/05/19 04:00:55;;;;;;;;;;;9.60;99.90;;;;;;5091335;28;19969;-76
2023/05/19 04:03:21;;;;;;;;;;;9.60;99.90;;;;;;5093108;28;19939;-76
2023/05/19 04:05:46;;;;;;;;;;;9.60;99.90;;;;;;5092819;28;19928;-76
2023/05/19 04:08:12;;;;;;;;;;;9.60;99.90;;;;;;5093265;28;19924;-76
2023/05/19 04:10:37;;;;;;;;;;;9.60;99.90;;;;;;5091811;28;19928;-76
2023/05/19 04:13:03;;;;;;;;;;;9.60;99.90;;;;;;5092650;28;19931;-76
2023/05/19 04:15:28;;;;;;;;;;;9.60;99.90;;;;;;5091011;28;20015;-77
2023/05/19 04:17:54;;;;;;;;;;;9.60;99.90;;;;;;5091672;28;19970;-76
2023/05/19 04:20:20;;;;;;;;;;;9.70;99.90;;;;;;5092360;28;19928;-76
2023/05/19 04:22:45;;;;;;;;;;;9.70;99.90;;;;;;5092973;28;20747;-76
2023/05/19 04:25:11;;;;;;;;;;;9.70;99.90;;;;;;5092800;28;19939;-76
2023/05/19 04:27:37;;;;;;;;;;;9.80;99.90;;;;;;5092288;28;19927;-76
2023/05/19 04:30:03;;;;;;;;;;;9.80;99.90;;;;;;5092445;28;20336;-76
2023/05/19 04:32:29;;;;;;;;;;;9.80;99.90;;;;;;5093058;28;20338;-76
2023/05/19 04:34:57;;;;;;;;;;;9.90;99.90;;;;;;5090203;28;20356;-76
2023/05/19 04:37:24;;;;;;;;;;;9.90;99.90;;;;;;5091210;28;19924;-76
2023/05/19 04:39:51;;;;;;;;;;;10.00;99.90;;;;;;5090868;28;20011;-76
2023/05/19 04:42:18;;;;;;;;;;;10.00;99.90;;;;;;5091703;28;20007;-76
2023/05/19 04:44:44;;;;;;;;;;;10.10;99.90;;;;;;5089907;28;19932;-76
2023/05/19 04:47:09;;;;;;;;;;;10.10;99.90;;;;;;5092562;28;19924;-76
2023/05/19 04:49:38;;;;;;;;;;;10.10;99.90;;;;;;5092001;28;19924;-76
2023/05/19 04:52:09;;;;;;;;;;;10.20;99.90;;;;;;5091979;28;19959;-76
2023/05/19 04:54:35;;;;;;;;;;;10.20;99.90;;;;;;5091286;28;20414;-76
2023/05/19 04:57:00;;;;;;;;;;;10.20;99.90;;;;;;5091022;28;20015;-76
2023/05/19 04:59:26;;;;;;;;;;;10.30;99.90;;;;;;5091818;28;19928;-76
2023/05/19 05:01:51;;;;;;;;;;;10.30;99.90;;;;;;5090508;28;20015;-76
2023/05/19 05:04:17;;;;;;;;;;;10.40;99.90;;;;;;5091866;28;19931;-76
2023/05/19 05:06:46;;;;;;;;;;;10.40;99.90;;;;;;5091896;28;19970;-76
2023/05/19 05:09:12;;;;;;;;;;;10.50;99.90;;;;;;5091456;28;19968;-76
2023/05/19 05:11:38;;;;;;;;;;;10.50;99.90;;;;;;5090635;28;19924;-76
2023/05/19 05:14:04;;;;;;;;;;;10.50;99.90;;;;;;5090066;28;19931;-76
2023/05/19 05:16:29;;;;;;;;;;;10.60;99.90;;;;;;5091488;28;20015;-76
2023/05/19 05:18:56;;;;;;;;;;;10.60;99.90;;;;;;5090154;28;19935;-76
2023/05/19 05:21:22;;;;;;;;;;;10.70;99.90;;;;;;5073132;28;20008;-76
2023/05/19 05:23:49;;;;;;;;;;;10.60;99.90;;;;;;5082447;28;20282;-72
2023/05/19 05:26:18;;;;;;;;;;;10.70;99.90;;;;;;5091706;28;19927;-72
2023/05/19 05:28:44;;;;;;;;;;;10.70;99.90;;;;;;5089475;28;19924;-74
2023/05/19 05:31:09;;;;;;;;;;;10.80;99.90;;;;;;5094856;28;19949;-73
2023/05/19 05:33:35;;;;;;;;;;;10.90;99.90;;;;;;5089525;28;19928;-75
2023/05/19 05:36:01;;;;;;;;;;;10.90;99.90;;;;;;5090053;28;19964;-75
2023/05/19 05:38:26;;;;;;;;;;;10.90;99.90;;;;;;5091382;28;19986;-75
2023/05/19 05:40:52;;;;;;;;;;;10.90;99.90;;;;;;5089730;28;20382;-75
2023/05/19 05:43:17;;;;;;;;;;;11.00;99.90;;;;;;5089865;28;19924;-75
2023/05/19 05:45:43;;;;;;;;;;;11.10;99.90;;;;;;5081694;28;19948;-75
2023/05/19 05:48:08;;;;;;;;;;;11.10;99.90;;;;;;5080530;28;19928;-76
2023/05/19 05:50:34;;;;;;;;;;;11.20;99.90;;;;;;5089407;28;19928;-75
2023/05/19 05:53:00;;;;;;;;;;;11.20;99.90;;;;;;5089720;28;19993;-75
2023/05/19 05:55:26;;;;;;;;;;;11.30;99.90;;;;;;5090851;28;19924;-76
2023/05/19 05:57:51;;;;;;;;;;;11.30;99.90;;;;;;5089854;28;19924;-76
2023/05/19 06:00:17;;;;;;;;;;;11.40;99.90;;;;;;5090428;28;19987;-76
2023/05/19 06:02:48;;;;;;;;;;;11.40;99.90;;;;;;5089566;28;19924;-75
2023/05/19 06:05:13;;;;;;;;;;;11.50;99.90;;;;;;5082273;28;20009;-75
2023/05/19 06:07:39;;;;;;;;;;;11.60;99.90;;;;;;5090970;28;20367;-76
2023/05/19 06:10:05;;;;;;;;;;;11.60;99.90;;;;;;5089394;28;19931;-76
2023/05/19 06:12:31;;;;;;;;;;;11.70;99.90;;;;;;5085265;28;19924;-76
2023/05/19 06:14:56;;;;;;;;;;;11.80;99.90;;;;;;5089244;28;20283;-76
2023/05/19 06:17:22;;;;;;;;;;;11.80;99.90;;;;;;5089573;28;20290;-76
2023/05/19 06:19:47;;;;;;;;;;;11.90;99.90;;;;;;5090467;28;19924;-76
2023/05/19 06:22:13;;;;;;;;;;;11.90;99.90;;;;;;5088536;28;19955;-76
2023/05/19 06:24:38;;;;;;;;;;;11.90;99.90;;;;;;5088966;28;19924;-76
2023/05/19 06:27:04;;;;;;;;;;;12.00;99.90;;;;;;5090496;28;20002;-76
2023/05/19 06:29:29;;;;;;;;;;;12.10;99.90;;;;;;5089556;28;19975;-76
2023/05/19 06:31:55;;;;;;;;;;;12.20;99.90;;;;;;5089952;28;19924;-76
2023/05/19 06:34:20;;;;;;;;;;;12.20;99.90;;;;;;5089002;28;19924;-76
2023/05/19 06:36:46;;;;;;;;;;;12.30;99.90;;;;;;5088409;28;19928;-76
2023/05/19 06:39:12;;;;;;;;;;;12.30;99.90;;;;;;5090777;28;19931;-76
2023/05/19 06:41:37;;;;;;;;;;;12.40;99.90;;;;;;5088655;28;20317;-76
2023/05/19 06:44:03;;;;;;;;;;;12.40;99.90;;;;;;5089885;28;19938;-77
2023/05/19 06:46:28;;;;;;;;;;;12.50;99.90;;;;;;5089558;28;19947;-76
2023/05/19 06:48:54;;;;;;;;;;;12.50;99.90;;;;;;5088741;28;19931;-76
2023/05/19 06:51:21;;;;;;;;;;;12.50;99.90;;;;;;5088219;28;19930;-76
2023/05/19 06:53:47;;;;;;;;;;;12.60;99.90;;;;;;5088859;28;19927;-76
2023/05/19 06:56:14;;;;;;;;;;;12.60;99.90;;;;;;5088040;28;19928;-76
2023/05/19 06:58:39;;;;;;;;;;;12.70;99.90;;;;;;5088021;28;19931;-76
2023/05/19 07:01:05;;;;;;;;;;;12.80;99.90;;;;;;5088825;28;19928;-76
2023/05/19 07:03:31;;;;;;;;;;;12.80;99.90;;;;;;5089758;28;19970;-76
2023/05/19 07:05:56;;;;;;;;;;;12.90;99.90;;;;;;5088052;28;19977;-76
2023/05/19 07:08:22;;;;;;;;;;;12.90;99.90;;;;;;5089481;28;20380;-76
2023/05/19 07:10:47;;;;;;;;;;;13.00;99.90;;;;;;5088506;28;19924;-76
2023/05/19 07:13:13;;;;;;;;;;;13.00;99.90;;;;;;5088395;28;20011;-76
2023/05/19 07:15:38;;;;;;;;;;;13.00;99.90;;;;;;5088058;28;20419;-76
2023/05/19 07:18:04;;;;;;;;;;;13.00;99.90;;;;;;5087896;28;20392;-76
2023/05/19 07:20:30;;;;;;;;;;;13.10;99.90;;;;;;5088243;28;19924;-76
2023/05/19 07:22:55;;;;;;;;;;;13.10;99.90;;;;;;5088318;28;19924;-76
2023/05/19 07:25:21;;;;;;;;;;;13.10;99.90;;;;;;5071395;28;19925;-76
2023/05/19 07:27:46;;;;;;;;;;;13.20;99.90;;;;;;5087941;28;19943;-76
2023/05/19 07:30:12;;;;;;;;;;;13.20;99.90;;;;;;5070223;28;19982;-76
2023/05/19 07:32:38;;;;;;;;;;;13.20;99.90;;;;;;5088950;28;19931;-76
2023/05/19 07:35:04;;;;;;;;;;;13.20;99.90;;;;;;5088045;28;19955;-77
2023/05/19 07:37:30;;;;;;;;;;;13.30;99.90;;;;;;5087226;28;20011;-76
2023/05/19 07:39:55;;;;;;;;;;;13.40;99.90;;;;;;5088328;28;20015;-76
2023/05/19 07:42:21;;;;;;;;;;;13.40;99.90;;;;;;5088854;28;20290;-76
2023/05/19 07:44:46;;;;;;;;;;;13.50;99.90;;;;;;5086933;28;20348;-76
2023/05/19 07:47:12;;;;;;;;;;;13.50;99.90;;;;;;5086907;28;19924;-76
2023/05/19 07:49:37;;;;;;;;;;;13.60;99.90;;;;;;5087029;28;20039;-76
2023/05/19 07:52:03;;;;;;;;;;;13.60;99.90;;;;;;5088816;28;20405;-76
2023/05/19 07:54:28;;;;;;;;;;;13.60;99.90;;;;;;5086747;28;19924;-76
2023/05/19 07:56:54;;;;;;;;;;;13.80;99.90;;;;;;5087458;28;19924;-76
2023/05/19 07:59:19;;;;;;;;;;;13.80;99.90;;;;;;5088479;28;19968;-76
2023/05/19 08:01:45;;;;;;;;;;;13.90;99.90;;;;;;5087266;28;19928;-76
2023/05/19 08:04:11;;;;;;;;;;;13.90;99.90;;;;;;5070215;28;19924;-76
2023/05/19 08:06:37;;;;;;;;;;;14.00;99.90;;;;;;5087054;28;19924;-76
2023/05/19 08:09:03;;;;;;;;;;;14.00;99.90;;;;;;5086664;28;19924;-76
2023/05/19 08:11:28;;;;;;;;;;;14.10;99.90;;;;;;5089310;28;19931;-76
2023/05/19 08:13:54;;;;;;;;;;;14.20;99.90;;;;;;5091896;28;19924;-76
2023/05/19 08:16:20;;;;;;;;;;;14.20;99.90;;;;;;5092127;28;19928;-76
2023/05/19 08:18:45;;;;;;;;;;;14.20;99.90;;;;;;5091240;28;19999;-76
2023/05/19 08:21:11;;;;;;;;;;;14.30;99.90;;;;;;5091860;28;20409;-76
2023/05/19 08:23:37;;;;;;;;;;;14.40;99.90;;;;;;5090347;28;19931;-76
2023/05/19 08:26:02;;;;;;;;;;;14.40;99.90;;;;;;5092226;28;19969;-76
2023/05/19 08:28:28;;;;;;;;;;;14.50;99.90;;;;;;5089646;28;20361;-76
2023/05/19 08:30:53;;;;;;;;;;;14.60;99.90;;;;;;5090659;28;19931;-76
2023/05/19 08:33:20;;;;;;;;;;;14.70;99.90;;;;;;5091211;28;19924;-76
2023/05/19 08:35:46;;;;;;;;;;;14.70;99.90;;;;;;5090409;28;20322;-76
2023/05/19 08:38:11;;;;;;;;;;;14.70;99.90;;;;;;5089949;28;20019;-76
2023/05/19 08:40:40;;;;;;;;;;;14.70;99.90;;;;;;5091104;28;20109;-76
2023/05/19 08:43:05;;;;;;;;;;;14.80;99.90;;;;;;5090204;28;20275;-76
2023/05/19 08:45:33;;;;;;;;;;;14.80;99.90;;;;;;5090401;28;19931;-76
2023/05/19 08:47:58;;;;;;;;;;;14.80;99.90;;;;;;5090795;28;20397;-76
2023/05/19 08:50:29;;;;;;;;;;;14.90;99.90;;;;;;5090488;28;19928;-76
2023/05/19 08:52:57;;;;;;;;;;;14.90;99.90;;;;;;5090814;28;20015;-76
2023/05/19 08:55:24;;;;;;;;;;;15.00;99.90;;;;;;5091242;28;20041;-76
2023/05/19 08:57:50;;;;;;;;;;;15.10;99.90;;;;;;5090972;28;19932;-76
2023/05/19 09:00:16;;;;;;;;;;;15.20;99.90;;;;;;5090195;28;19930;-76
2023/05/19 09:02:42;;;;;;;;;;;15.20;99.90;;;;;;5072491;28;19973;-76
2023/05/19 09:05:08;;;;;;;;;;;15.40;99.90;;;;;;5090852;28;20018;-76
2023/05/19 09:07:35;;;;;;;;;;;15.40;99.90;;;;;;5090519;28;19931;-76
2023/05/19 09:10:00;;;;;;;;;;;15.50;99.90;;;;;;5090728;28;19927;-76
2023/05/19 09:12:26;;;;;;;;;;;15.60;99.90;;;;;;5090890;28;20378;-76
2023/05/19 09:14:52;;;;;;;;;;;15.70;99.90;;;;;;5090445;28;19931;-76
2023/05/19 09:17:17;;;;;;;;;;;15.70;99.90;;;;;;5089407;28;19924;-76
2023/05/19 09:19:43;;;;;;;;;;;15.90;99.90;;;;;;5090889;28;19928;-76
2023/05/19 09:22:10;;;;;;;;;;;16.00;99.90;;;;;;5087935;28;20020;-76
2023/05/19 09:24:37;;;;;;;;;;;16.10;99.90;;;;;;5089473;28;19924;-77
2023/05/19 09:27:02;;;;;;;;;;;16.30;99.90;;;;;;5089151;28;20030;-76
2023/05/19 09:29:28;;;;;;;;;;;16.70;99.90;;;;;;5089178;28;20476;-76
2023/05/19 09:31:59;;;;;;;;;;;17.10;99.90;;;;;;5091247;28;19932;-76
2023/05/19 09:34:25;;;;;;;;;;;17.50;99.90;;;;;;5091386;28;19928;-76
2023/05/19 09:36:52;;;;;;;;;;;17.70;99.90;;;;;;5089670;28;19925;-77
2023/05/19 09:39:18;;;;;;;;;;;17.90;99.90;;;;;;5091561;28;19970;-77
2023/05/19 09:41:44;;;;;;;;;;;18.20;98.60;;;;;;5091079;28;20011;-77
2023/05/19 09:44:12;;;;;;;7.20;1.80;;;18.40;99.90;;;;;;5082588;28;20012;-77
2023/05/19 09:46:46;;;;;;;7.45;1.77;;;18.60;99.10;;;;;;5087678;28;20408;-77
2023/05/19 09:49:13;;;;;;;6.10;1.80;;;18.80;98.40;;;;;;5089411;28;20410;-77
2023/05/19 09:51:40;;;;;;;5.65;1.63;;;19.00;96.30;;;;;;5087956;28;20481;-77
2023/05/19 09:54:08;;;;;;;5.75;1.70;;;19.10;94.80;;;;;;5089224;28;20926;-77
2023/05/19 09:56:35;;;;;;;5.25;1.70;;;19.20;95.10;;;;;;5087988;28;21091;-76
2023/05/19 09:59:02;;;;;;;7.97;2.30;;;19.30;96.50;;;;;;5087440;28;20411;-77
2023/05/19 10:01:32;;;;;;;6.05;2.08;;;19.40;97.50;;;;;;5087884;28;20412;-77
2023/05/19 10:03:59;;;;;;;6.40;2.10;;;19.60;98.20;;;;;;5089075;28;21078;-77
2023/05/19 10:06:25;;;;;;;8.18;2.00;;;19.80;97.10;;;;;;5089196;28;20485;-77
2023/05/19 10:08:51;;;;;;;6.93;1.83;;;20.00;96.80;;;;;;5088848;28;20079;-77
2023/05/19 10:11:17;;;;;;;;;;;20.20;94.90;;;;;;5090491;28;20395;-77
2023/05/19 10:13:44;;;;;;;;;;;20.30;92.30;;;;;;5090607;28;19926;-77
2023/05/19 10:16:09;;;;;;;;;;;20.20;93.00;;;;;;5090655;28;19965;-77
2023/05/19 10:18:36;;;;;;;;;;;20.30;94.20;;;;;;5090549;28;19920;-77
2023/05/19 10:21:02;;;;;;;;;;;20.40;91.60;;;;;;5090462;28;19920;-77
2023/05/19 10:23:28;;;;;;;;;;;20.50;92.70;;;;;;5088723;28;20348;-77
2023/05/19 10:25:57;;;;;;;5.43;1.52;;;20.50;91.10;;;;;;5088455;28;19927;-77
2023/05/19 10:28:30;;;;;;;4.78;1.27;;;20.60;90.70;;;;;;5088623;28;20509;-77
2023/05/19 10:31:00;;;;;;;5.97;1.58;;;20.70;91.00;;;;;;5088585;28;20433;-77
2023/05/19 10:33:38;;;;;;;6.43;1.75;;;20.80;90.70;;;;;;5088622;28;20433;-77
2023/05/19 10:36:10;;;;;;;;;;;21.00;89.80;;;;;;5090234;28;20063;-77
2023/05/19 10:38:55;;;;;;;;;;;21.20;87.10;;;;;;5083905;28;19920;-77
2023/05/19 10:41:39;;;;;;;;;;;21.20;85.90;;;;;;5086044;28;19928;-77
2023/05/19 10:44:21;;;;;;;5.75;1.10;;;21.40;86.20;;;;;;5089617;28;19931;-77
2023/05/19 10:46:47;;;;;;;5.05;1.25;;;21.50;85.50;;;;;;5085589;28;20413;-77
2023/05/19 10:49:21;;;;;;;5.80;1.30;;;21.60;83.10;;;;;;5088269;28;21111;-77
2023/05/19 10:51:47;;;;;;;4.25;1.30;;;21.70;82.50;;;;;;5086811;28;20583;-77
2023/05/19 10:54:15;;;;;;;6.68;2.10;;;21.60;81.70;;;;;;5086929;28;20489;-77
2023/05/19 10:56:46;;;;;;;4.40;1.30;;;21.80;80.00;;;;;;5087721;28;20522;-77
2023/05/19 10:59:34;;;;;;;4.60;1.40;;;21.90;78.60;;;;;;5087942;28;20931;-77
2023/05/19 11:02:03;;;;;;;3.55;1.10;;;22.10;77.30;;;;;;5081560;28;20151;-77
2023/05/19 11:05:06;;;;;;;3.03;0.90;;;22.40;77.40;;;;;;5087752;28;20032;-77
2023/05/19 11:07:32;;;;;;;;;;;22.60;76.60;;;;;;5072341;28;20422;-77
2023/05/19 11:09:57;;;;;;;;;;;22.80;73.20;;;;;;5087397;28;19920;-77
2023/05/19 11:12:23;;;;;;;8.43;1.67;;;22.90;73.50;;;;;;5080221;28;19924;-77
2023/05/19 11:14:54;;;;;;;6.05;1.20;;;22.90;72.10;;;;;;5086674;28;20093;-77
2023/05/19 11:17:22;;;;;;;7.40;1.60;;;22.70;70.10;;;;;;5085412;28;20410;-77
2023/05/19 11:19:53;;;;;;;3.80;1.27;;;22.60;69.80;;;;;;5068585;28;20759;-77
2023/05/19 11:22:27;;;;;;;5.93;1.48;;;22.30;70.30;;;;;;5080873;28;20429;-77
2023/05/19 11:24:54;;;;;;;4.57;1.20;;;22.20;70.20;;;;;;5079399;28;20900;-77
2023/05/19 11:27:19;;;;;;;5.53;1.48;;;22.40;71.50;;;;;;5085644;28;20492;-77
2023/05/19 11:29:47;;;;;;;;;;;22.50;66.40;;;;;;5087479;28;20054;-78
2023/05/19 11:32:13;;;;;;;5.00;1.15;;;22.70;69.70;;;;;;5088679;28;20298;-78
2023/05/19 11:34:39;;;;;;;7.80;1.58;;;22.90;67.00;;;;;;5088550;28;20055;-78
2023/05/19 11:37:08;;;;;;;5.18;1.25;;;23.00;66.20;;;;;;5089356;28;20036;-78
2023/05/19 11:39:34;;;;;;;3.70;1.20;;;23.20;65.00;;;;;;5088282;28;20040;-78
2023/05/19 11:42:00;;;;;;;9.15;1.98;;;23.30;66.70;;;;;;5088828;28;20062;-78
2023/05/19 11:44:25;;;;;;;;;;;23.40;67.80;;;;;;5087960;28;20050;-78
2023/05/19 11:46:51;;;;;;;;;;;23.60;67.90;;;;;;5092405;28;19927;-78
2023/05/19 11:49:17;;;;;;;;;;;23.90;65.90;;;;;;5093295;28;20308;-78
2023/05/19 11:51:43;;;;;;;;;;;23.90;65.50;;;;;;5091618;28;19928;-78
2023/05/19 11:54:12;;;;;;;;;;;23.90;62.70;;;;;;5093014;28;19930;-78
2023/05/19 11:56:41;;;;;;;;;;;24.00;63.20;;;;;;5093462;28;19920;-78
2023/05/19 11:59:07;;;;;;;;;;;24.10;62.10;;;;;;5092092;28;19920;-78
2023/05/19 12:01:33;;;;;;;5.72;2.30;;;24.20;63.20;;;;;;5089287;28;19926;-78
2023/05/19 12:04:00;;;;;;;5.95;1.50;;;24.20;61.80;;;;;;5085659;28;20888;-78
2023/05/19 12:06:27;;;;;;;6.43;1.33;;;24.10;61.80;;;;;;5089893;28;20406;-77
2023/05/19 12:08:56;;;;;;;5.50;1.55;;;24.10;62.80;;;;;;5089246;28;20949;-77
2023/05/19 12:11:22;;;;;;;4.03;1.30;;;24.10;62.10;;;;;;5089743;28;20406;-78
2023/05/19 12:13:49;;;;;;;;;;;24.30;63.50;;;;;;5074229;28;20845;-78
2023/05/19 12:16:18;;;;;;;;;;;24.40;62.40;;;;;;5092774;28;19955;-78
2023/05/19 12:18:44;;;;;;;;;;;24.50;59.30;;;;;;5091645;28;20014;-78
2023/05/19 12:21:10;;;;;;;;;;;24.60;62.50;;;;;;5084417;28;20015;-78
2023/05/19 12:23:35;;;;;;;;;;;24.70;60.60;;;;;;5090305;28;20305;-78
2023/05/19 12:26:01;;;;;;;;;;;24.80;61.60;;;;;;5090642;28;19919;-78
2023/05/19 12:28:30;;;;;;;;;;;24.80;60.60;;;;;;5088863;28;20400;-78
2023/05/19 12:30:57;;;;;;;;;;;24.70;61.70;;;;;;5090070;28;19920;-78
2023/05/19 12:33:23;;;;;;;;;;;24.60;60.10;;;;;;5090418;28;19968;-78
2023/05/19 12:35:49;;;;;;;;;;;24.40;61.30;;;;;;5090174;28;20080;-78
2023/05/19 12:38:15;;;;;;;;;;;24.40;63.30;;;;;;5063343;28;20469;-78
2023/05/19 12:40:41;;;;;;;;;;;24.30;63.80;;;;;;5091547;28;20019;-78
2023/05/19 12:43:08;;;;;;;;;;;24.40;63.60;;;;;;5089620;28;20344;-78
2023/05/19 12:45:34;;;;;;;;;;;24.60;65.20;;;;;;5090360;28;20393;-78
2023/05/19 12:48:04;;;;;;;;;;;24.70;61.70;;;;;;5090407;28;20410;-78
2023/05/19 12:50:30;;;;;;;;;;;24.80;63.50;;;;;;5090918;28;20392;-78
2023/05/19 12:52:58;;;;;;;;;;;24.80;62.60;;;;;;5080810;28;19927;-78
2023/05/19 12:55:23;;;;;;;;;;;24.70;62.20;;;;;;5090527;28;19920;-78
2023/05/19 12:57:50;;;;;;;;;;;24.60;63.00;;;;;;5072572;28;19920;-78
2023/05/19 13:00:19;;;;;;;;;;;24.60;64.50;;;;;;5073695;28;19920;-78
2023/05/19 13:02:58;;;;;;;;;;;24.50;63.50;;;;;;5090066;28;19920;-78
2023/05/19 13:05:25;;;;;;;;;;;24.50;62.00;;;;;;5090080;28;20015;-78
2023/05/19 13:07:53;;;;;;;;;;;24.50;64.20;;;;;;5089799;28;20018;-78
2023/05/19 13:10:19;;;;;;;;;;;24.50;66.40;;;;;;5090099;28;20018;-78
2023/05/19 13:12:45;;;;;;;;;;;24.70;64.60;;;;;;5091635;28;20019;-78
2023/05/19 13:15:10;;;;;;;;;;;24.70;63.40;;;;;;5090346;28;20283;-78
2023/05/19 13:17:36;;;;;;;;;;;24.70;63.20;;;;;;5090357;28;19920;-78
2023/05/19 13:20:02;;;;;;;;;;;24.80;62.80;;;;;;5089688;28;20050;-78
2023/05/19 13:22:28;;;;;;;;;;;24.90;64.20;;;;;;5091179;28;19979;-77
2023/05/19 13:24:57;;;;;;;;;;;25.00;62.40;;;;;;5090210;28;20006;-78
2023/05/19 13:27:23;;;;;;;;;;;25.00;62.00;;;;;;5091273;28;19924;-78
2023/05/19 13:29:49;;;;;;;;;;;25.20;61.80;;;;;;5091554;28;20331;-78
2023/05/19 13:32:15;;;;;;;;;;;25.40;61.50;;;;;;5089913;28;20057;-78
2023/05/19 13:34:40;;;;;;;;;;;25.50;61.80;;;;;;5091533;28;19920;-78
2023/05/19 13:37:08;;;;;;;;;;;25.50;59.70;;;;;;5091335;28;19927;-78
2023/05/19 13:39:34;;;;;;;18.15;2.83;;;25.50;60.90;;;;;;5090284;28;20271;-78
2023/05/19 13:41:59;;;;;;;;;;;25.60;63.20;;;;;;5090081;28;20090;-78
2023/05/19 13:44:25;;;;;;;;;;;25.90;61.40;;;;;;5090976;28;19923;-78
2023/05/19 13:46:50;;;;;;;;;;;26.20;62.10;;;;;;5087125;28;19925;-78
2023/05/19 13:49:16;;;;;;;;;;;26.50;61.60;;;;;;5084773;28;19978;-78
2023/05/19 13:51:42;;;;;;;;;;;26.70;61.30;;;;;;5089776;28;19943;-78
2023/05/19 13:54:08;;;;;;;;;;;26.70;59.00;;;;;;5089922;28;19954;-78
2023/05/19 13:56:34;;;;;;;;;;;26.80;59.60;;;;;;5091011;28;20045;-78
2023/05/19 13:59:00;;;;;;;;;;;26.90;59.40;;;;;;5072759;28;20019;-78
2023/05/19 14:01:25;;;;;;;;;;;26.90;59.40;;;;;;5079994;28;19920;-78
2023/05/19 14:03:51;;;;;;;;;;;26.70;55.90;;;;;;5089255;28;19927;-78